sensor_id;sensor_type;location;lat;lon;timestamp;P1;durP1;ratioP1;P2;durP2;ratioP2
3004;SDS011;1512;51.486;6.610;2022-09-13T00:00:03;5.63;;;5.07;;
3004;SDS011;1512;51.486;6.610;2022-09-13T00:04:12;6.83;;;5.40;;
3004;SDS011;1512;51.486;6.610;2022-09-13T00:08:21;11.27;;;5.60;;
3004;SDS011;1512;51.486;6.610;2022-09-13T00:12:30;5.90;;;5.30;;
3004;SDS011;1512;51.486;6.610;2022-09-13T00:16:38;6.87;;;5.03;;
3004;SDS011;1512;51.486;6.610;2022-09-13T00:20:47;6.07;;;5.47;;
3004;SDS011;1512;51.486;6.610;2022-09-13T00:24:55;6.33;;;5.70;;
3004;SDS011;1512;51.486;6.610;2022-09-13T00:29:04;5.40;;;4.90;;
3004;SDS011;1512;51.486;6.610;2022-09-13T00:33:13;6.23;;;5.20;;
3004;SDS011;1512;51.486;6.610;2022-09-13T00:37:21;8.20;;;6.70;;
3004;SDS011;1512;51.486;6.610;2022-09-13T00:41:31;8.70;;;5.10;;
3004;SDS011;1512;51.486;6.610;2022-09-13T00:45:39;6.07;;;5.57;;
3004;SDS011;1512;51.486;6.610;2022-09-13T00:54:10;6.13;;;4.53;;
3004;SDS011;1512;51.486;6.610;2022-09-13T00:58:22;6.27;;;4.83;;
3004;SDS011;1512;51.486;6.610;2022-09-13T01:02:32;5.27;;;4.50;;
3004;SDS011;1512;51.486;6.610;2022-09-13T01:06:40;5.73;;;4.40;;
3004;SDS011;1512;51.486;6.610;2022-09-13T01:10:50;7.13;;;4.40;;
3004;SDS011;1512;51.486;6.610;2022-09-13T01:15:00;6.20;;;4.60;;
3004;SDS011;1512;51.486;6.610;2022-09-13T01:19:11;6.77;;;5.63;;
3004;SDS011;1512;51.486;6.610;2022-09-13T01:28:11;4.60;;;4.17;;
3004;SDS011;1512;51.486;6.610;2022-09-13T01:45:52;5.00;;;4.50;;
3004;SDS011;1512;51.486;6.610;2022-09-13T01:50:23;7.10;;;4.63;;
3004;SDS011;1512;51.486;6.610;2022-09-13T01:59:23;5.93;;;4.40;;
3004;SDS011;1512;51.486;6.610;2022-09-13T02:03:35;4.73;;;4.30;;
3004;SDS011;1512;51.486;6.610;2022-09-13T02:07:52;6.80;;;5.27;;
3004;SDS011;1512;51.486;6.610;2022-09-13T02:12:05;5.20;;;4.47;;
3004;SDS011;1512;51.486;6.610;2022-09-13T02:16:29;4.93;;;4.10;;
3004;SDS011;1512;51.486;6.610;2022-09-13T02:20:32;10.00;;;4.43;;
3004;SDS011;1512;51.486;6.610;2022-09-13T02:24:45;5.80;;;4.30;;
3004;SDS011;1512;51.486;6.610;2022-09-13T02:28:57;7.80;;;4.90;;
3004;SDS011;1512;51.486;6.610;2022-09-13T02:33:14;5.20;;;4.70;;
3004;SDS011;1512;51.486;6.610;2022-09-13T02:41:55;5.20;;;4.60;;
3004;SDS011;1512;51.486;6.610;2022-09-13T02:46:10;5.00;;;4.50;;
3004;SDS011;1512;51.486;6.610;2022-09-13T02:55:10;4.90;;;4.00;;
3004;SDS011;1512;51.486;6.610;2022-09-13T02:59:20;4.73;;;4.07;;
3004;SDS011;1512;51.486;6.610;2022-09-13T03:03:30;6.00;;;3.70;;
3004;SDS011;1512;51.486;6.610;2022-09-13T03:07:38;6.23;;;4.60;;
3004;SDS011;1512;51.486;6.610;2022-09-13T03:29:55;5.40;;;4.70;;
3004;SDS011;1512;51.486;6.610;2022-09-13T03:34:24;4.75;;;4.35;;
3004;SDS011;1512;51.486;6.610;2022-09-13T03:38:39;5.07;;;3.80;;
3004;SDS011;1512;51.486;6.610;2022-09-13T03:42:54;4.92;;;4.45;;
3004;SDS011;1512;51.486;6.610;2022-09-13T03:47:04;4.50;;;4.03;;
3004;SDS011;1512;51.486;6.610;2022-09-13T03:51:14;11.30;;;5.27;;
3004;SDS011;1512;51.486;6.610;2022-09-13T03:55:23;8.50;;;5.23;;
3004;SDS011;1512;51.486;6.610;2022-09-13T03:59:33;5.60;;;5.00;;
3004;SDS011;1512;51.486;6.610;2022-09-13T04:03:44;5.83;;;4.23;;
3004;SDS011;1512;51.486;6.610;2022-09-13T04:07:53;5.63;;;4.60;;
3004;SDS011;1512;51.486;6.610;2022-09-13T04:12:02;7.93;;;4.73;;
3004;SDS011;1512;51.486;6.610;2022-09-13T04:16:11;6.27;;;5.57;;
3004;SDS011;1512;51.486;6.610;2022-09-13T04:20:20;5.37;;;4.67;;
3004;SDS011;1512;51.486;6.610;2022-09-13T04:24:28;7.50;;;4.67;;
3004;SDS011;1512;51.486;6.610;2022-09-13T04:28:38;5.07;;;4.40;;
3004;SDS011;1512;51.486;6.610;2022-09-13T04:37:14;5.07;;;4.57;;
3004;SDS011;1512;51.486;6.610;2022-09-13T04:41:23;5.07;;;4.57;;
3004;SDS011;1512;51.486;6.610;2022-09-13T04:45:32;5.37;;;4.87;;
3004;SDS011;1512;51.486;6.610;2022-09-13T04:49:41;5.70;;;4.90;;
3004;SDS011;1512;51.486;6.610;2022-09-13T04:53:52;4.97;;;4.47;;
3004;SDS011;1512;51.486;6.610;2022-09-13T04:58:03;5.00;;;4.53;;
3004;SDS011;1512;51.486;6.610;2022-09-13T05:02:11;5.27;;;4.30;;
3004;SDS011;1512;51.486;6.610;2022-09-13T05:06:20;4.77;;;4.27;;
3004;SDS011;1512;51.486;6.610;2022-09-13T05:10:29;5.37;;;4.87;;
3004;SDS011;1512;51.486;6.610;2022-09-13T05:14:38;7.77;;;4.70;;
3004;SDS011;1512;51.486;6.610;2022-09-13T05:18:46;5.53;;;4.70;;
3004;SDS011;1512;51.486;6.610;2022-09-13T05:22:55;5.73;;;5.00;;
3004;SDS011;1512;51.486;6.610;2022-09-13T05:27:03;5.53;;;4.73;;
3004;SDS011;1512;51.486;6.610;2022-09-13T05:31:14;6.20;;;4.40;;
3004;SDS011;1512;51.486;6.610;2022-09-13T05:35:24;6.47;;;4.53;;
3004;SDS011;1512;51.486;6.610;2022-09-13T05:39:33;4.97;;;4.50;;
3004;SDS011;1512;51.486;6.610;2022-09-13T05:43:43;6.30;;;4.47;;
3004;SDS011;1512;51.486;6.610;2022-09-13T05:47:52;5.70;;;4.63;;
3004;SDS011;1512;51.486;6.610;2022-09-13T05:52:01;4.93;;;4.40;;
3004;SDS011;1512;51.486;6.610;2022-09-13T05:56:10;4.63;;;4.23;;
3004;SDS011;1512;51.486;6.610;2022-09-13T06:00:22;4.97;;;4.47;;
3004;SDS011;1512;51.486;6.610;2022-09-13T06:09:00;5.10;;;4.50;;
3004;SDS011;1512;51.486;6.610;2022-09-13T06:13:08;5.13;;;4.63;;
3004;SDS011;1512;51.486;6.610;2022-09-13T06:17:17;7.10;;;4.47;;
3004;SDS011;1512;51.486;6.610;2022-09-13T06:21:25;4.33;;;3.93;;
3004;SDS011;1512;51.486;6.610;2022-09-13T06:25:35;5.60;;;4.90;;
3004;SDS011;1512;51.486;6.610;2022-09-13T06:29:44;4.90;;;4.40;;
3004;SDS011;1512;51.486;6.610;2022-09-13T06:33:56;4.50;;;4.10;;
3004;SDS011;1512;51.486;6.610;2022-09-13T06:47:06;6.43;;;5.20;;
3004;SDS011;1512;51.486;6.610;2022-09-13T06:51:15;5.70;;;5.10;;
3004;SDS011;1512;51.486;6.610;2022-09-13T06:59:54;5.87;;;5.27;;
3004;SDS011;1512;51.486;6.610;2022-09-13T07:04:03;5.27;;;4.70;;
3004;SDS011;1512;51.486;6.610;2022-09-13T07:08:20;11.53;;;5.67;;
3004;SDS011;1512;51.486;6.610;2022-09-13T07:12:29;6.00;;;5.30;;
3004;SDS011;1512;51.486;6.610;2022-09-13T07:16:37;6.57;;;5.20;;
3004;SDS011;1512;51.486;6.610;2022-09-13T07:20:46;7.90;;;5.50;;
3004;SDS011;1512;51.486;6.610;2022-09-13T07:24:55;6.77;;;5.37;;
3004;SDS011;1512;51.486;6.610;2022-09-13T07:29:05;5.73;;;5.20;;
3004;SDS011;1512;51.486;6.610;2022-09-13T07:33:15;6.23;;;5.00;;
3004;SDS011;1512;51.486;6.610;2022-09-13T07:37:23;11.40;;;6.30;;
3004;SDS011;1512;51.486;6.610;2022-09-13T07:41:33;7.93;;;6.10;;
3004;SDS011;1512;51.486;6.610;2022-09-13T07:45:43;7.23;;;5.93;;
3004;SDS011;1512;51.486;6.610;2022-09-13T07:49:51;7.70;;;7.00;;
3004;SDS011;1512;51.486;6.610;2022-09-13T07:54:01;8.30;;;6.57;;
3004;SDS011;1512;51.486;6.610;2022-09-13T07:58:11;18.10;;;6.33;;
3004;SDS011;1512;51.486;6.610;2022-09-13T08:02:20;5.93;;;5.37;;
3004;SDS011;1512;51.486;6.610;2022-09-13T08:06:29;6.47;;;5.73;;
3004;SDS011;1512;51.486;6.610;2022-09-13T08:10:39;12.13;;;6.70;;
3004;SDS011;1512;51.486;6.610;2022-09-13T08:14:49;9.00;;;7.43;;
3004;SDS011;1512;51.486;6.610;2022-09-13T08:18:59;7.93;;;7.10;;
3004;SDS011;1512;51.486;6.610;2022-09-13T08:23:09;10.80;;;7.40;;
3004;SDS011;1512;51.486;6.610;2022-09-13T08:27:18;11.00;;;8.60;;
3004;SDS011;1512;51.486;6.610;2022-09-13T08:31:27;9.13;;;8.10;;
3004;SDS011;1512;51.486;6.610;2022-09-13T08:35:36;11.60;;;7.70;;
3004;SDS011;1512;51.486;6.610;2022-09-13T08:39:45;11.57;;;6.90;;
3004;SDS011;1512;51.486;6.610;2022-09-13T08:43:56;8.97;;;7.50;;
3004;SDS011;1512;51.486;6.610;2022-09-13T08:48:11;10.13;;;8.50;;
3004;SDS011;1512;51.486;6.610;2022-09-13T08:52:27;12.30;;;8.40;;
3004;SDS011;1512;51.486;6.610;2022-09-13T09:00:52;12.97;;;8.60;;
3004;SDS011;1512;51.486;6.610;2022-09-13T09:05:16;13.50;;;9.47;;
3004;SDS011;1512;51.486;6.610;2022-09-13T09:09:26;11.03;;;9.73;;
3004;SDS011;1512;51.486;6.610;2022-09-13T09:18:17;9.77;;;8.73;;
3004;SDS011;1512;51.486;6.610;2022-09-13T09:22:33;10.73;;;8.70;;
3004;SDS011;1512;51.486;6.610;2022-09-13T09:26:42;10.20;;;8.23;;
3004;SDS011;1512;51.486;6.610;2022-09-13T09:39:28;12.15;;;8.10;;
3004;SDS011;1512;51.486;6.610;2022-09-13T09:44:00;10.40;;;9.30;;
3004;SDS011;1512;51.486;6.610;2022-09-13T09:48:04;10.70;;;8.40;;
3004;SDS011;1512;51.486;6.610;2022-09-13T09:52:13;10.53;;;9.17;;
3004;SDS011;1512;51.486;6.610;2022-09-13T09:56:26;9.93;;;7.90;;
3004;SDS011;1512;51.486;6.610;2022-09-13T10:00:49;12.30;;;9.33;;
3004;SDS011;1512;51.486;6.610;2022-09-13T10:05:03;12.03;;;9.10;;
3004;SDS011;1512;51.486;6.610;2022-09-13T10:09:14;14.43;;;10.00;;
3004;SDS011;1512;51.486;6.610;2022-09-13T10:13:25;12.37;;;9.33;;
3004;SDS011;1512;51.486;6.610;2022-09-13T10:17:37;14.33;;;9.83;;
3004;SDS011;1512;51.486;6.610;2022-09-13T10:26:13;9.47;;;7.70;;
3004;SDS011;1512;51.486;6.610;2022-09-13T10:34:41;10.40;;;8.70;;
3004;SDS011;1512;51.486;6.610;2022-09-13T10:39:04;12.00;;;9.40;;
3004;SDS011;1512;51.486;6.610;2022-09-13T10:43:15;14.00;;;9.47;;
3004;SDS011;1512;51.486;6.610;2022-09-13T10:47:36;10.73;;;9.63;;
3004;SDS011;1512;51.486;6.610;2022-09-13T10:51:48;10.73;;;8.37;;
3004;SDS011;1512;51.486;6.610;2022-09-13T10:55:57;12.17;;;9.40;;
3004;SDS011;1512;51.486;6.610;2022-09-13T11:00:06;13.77;;;9.63;;
3004;SDS011;1512;51.486;6.610;2022-09-13T11:04:26;11.13;;;9.93;;
3004;SDS011;1512;51.486;6.610;2022-09-13T11:08:40;12.30;;;8.80;;
3004;SDS011;1512;51.486;6.610;2022-09-13T11:12:45;11.60;;;7.13;;
3004;SDS011;1512;51.486;6.610;2022-09-13T11:17:01;13.90;;;9.58;;
3004;SDS011;1512;51.486;6.610;2022-09-13T11:30:24;10.50;;;8.70;;
3004;SDS011;1512;51.486;6.610;2022-09-13T11:34:41;9.80;;;7.03;;
3004;SDS011;1512;51.486;6.610;2022-09-13T11:39:21;7.67;;;6.43;;
3004;SDS011;1512;51.486;6.610;2022-09-13T11:43:56;8.03;;;7.20;;
3004;SDS011;1512;51.486;6.610;2022-09-13T11:48:29;12.53;;;8.10;;
3004;SDS011;1512;51.486;6.610;2022-09-13T11:57:02;13.90;;;7.50;;
3004;SDS011;1512;51.486;6.610;2022-09-13T12:01:09;11.30;;;9.93;;
3004;SDS011;1512;51.486;6.610;2022-09-13T12:05:20;7.93;;;6.40;;
3004;SDS011;1512;51.486;6.610;2022-09-13T12:10:14;16.60;;;11.33;;
3004;SDS011;1512;51.486;6.610;2022-09-13T12:13:49;12.40;;;10.57;;
3004;SDS011;1512;51.486;6.610;2022-09-13T12:18:03;16.80;;;11.10;;
3004;SDS011;1512;51.486;6.610;2022-09-13T12:22:12;10.20;;;7.97;;
3004;SDS011;1512;51.486;6.610;2022-09-13T12:26:33;26.00;;;11.10;;
3004;SDS011;1512;51.486;6.610;2022-09-13T12:30:56;15.77;;;11.43;;
3004;SDS011;1512;51.486;6.610;2022-09-13T12:35:14;13.93;;;9.50;;
3004;SDS011;1512;51.486;6.610;2022-09-13T12:39:39;12.83;;;9.33;;
3004;SDS011;1512;51.486;6.610;2022-09-13T12:52:43;11.77;;;10.33;;
3004;SDS011;1512;51.486;6.610;2022-09-13T13:01:23;12.40;;;10.17;;
3004;SDS011;1512;51.486;6.610;2022-09-13T13:09:55;9.73;;;8.70;;
3004;SDS011;1512;51.486;6.610;2022-09-13T13:14:04;9.67;;;8.20;;
3004;SDS011;1512;51.486;6.610;2022-09-13T13:18:20;12.07;;;7.43;;
3004;SDS011;1512;51.486;6.610;2022-09-13T13:26:56;10.37;;;8.70;;
3004;SDS011;1512;51.486;6.610;2022-09-13T13:31:06;8.70;;;6.90;;
3004;SDS011;1512;51.486;6.610;2022-09-13T13:35:27;9.63;;;8.30;;
3004;SDS011;1512;51.486;6.610;2022-09-13T13:39:42;9.40;;;8.50;;
3004;SDS011;1512;51.486;6.610;2022-09-13T13:43:52;9.50;;;7.97;;
3004;SDS011;1512;51.486;6.610;2022-09-13T13:57:19;8.03;;;7.23;;
3004;SDS011;1512;51.486;6.610;2022-09-13T14:01:32;9.63;;;7.90;;
3004;SDS011;1512;51.486;6.610;2022-09-13T14:19:42;7.10;;;6.30;;
3004;SDS011;1512;51.486;6.610;2022-09-13T14:28:18;9.20;;;7.13;;
3004;SDS011;1512;51.486;6.610;2022-09-13T14:32:49;8.20;;;6.20;;
3004;SDS011;1512;51.486;6.610;2022-09-13T14:37:04;8.50;;;7.60;;
3004;SDS011;1512;51.486;6.610;2022-09-13T14:41:15;11.97;;;8.60;;
3004;SDS011;1512;51.486;6.610;2022-09-13T14:45:27;12.20;;;7.73;;
3004;SDS011;1512;51.486;6.610;2022-09-13T14:49:45;9.43;;;7.70;;
3004;SDS011;1512;51.486;6.610;2022-09-13T14:53:57;11.93;;;7.93;;
3004;SDS011;1512;51.486;6.610;2022-09-13T14:58:19;7.70;;;6.50;;
3004;SDS011;1512;51.486;6.610;2022-09-13T15:02:23;10.10;;;8.30;;
3004;SDS011;1512;51.486;6.610;2022-09-13T15:06:39;8.93;;;8.00;;
3004;SDS011;1512;51.486;6.610;2022-09-13T15:10:50;10.47;;;8.70;;
3004;SDS011;1512;51.486;6.610;2022-09-13T15:19:34;12.18;;;8.15;;
3004;SDS011;1512;51.486;6.610;2022-09-13T15:28:00;8.60;;;7.70;;
3004;SDS011;1512;51.486;6.610;2022-09-13T15:32:18;8.73;;;7.40;;
3004;SDS011;1512;51.486;6.610;2022-09-13T15:36:29;9.27;;;8.17;;
3004;SDS011;1512;51.486;6.610;2022-09-13T15:40:40;10.90;;;8.43;;
3004;SDS011;1512;51.486;6.610;2022-09-13T15:44:54;9.70;;;8.00;;
3004;SDS011;1512;51.486;6.610;2022-09-13T15:49:03;11.97;;;8.43;;
3004;SDS011;1512;51.486;6.610;2022-09-13T15:53:12;10.23;;;8.23;;
3004;SDS011;1512;51.486;6.610;2022-09-13T16:01:34;11.60;;;9.20;;
3004;SDS011;1512;51.486;6.610;2022-09-13T16:05:42;9.03;;;8.13;;
3004;SDS011;1512;51.486;6.610;2022-09-13T16:09:51;9.60;;;7.83;;
3004;SDS011;1512;51.486;6.610;2022-09-13T16:14:00;10.50;;;8.47;;
3004;SDS011;1512;51.486;6.610;2022-09-13T16:18:09;9.47;;;8.43;;
3004;SDS011;1512;51.486;6.610;2022-09-13T16:22:18;9.07;;;6.57;;
3004;SDS011;1512;51.486;6.610;2022-09-13T16:26:26;9.90;;;7.60;;
3004;SDS011;1512;51.486;6.610;2022-09-13T16:30:37;6.90;;;6.00;;
3004;SDS011;1512;51.486;6.610;2022-09-13T16:34:46;9.30;;;7.83;;
3004;SDS011;1512;51.486;6.610;2022-09-13T16:38:55;7.80;;;7.00;;
3004;SDS011;1512;51.486;6.610;2022-09-13T16:43:04;8.00;;;6.50;;
3004;SDS011;1512;51.486;6.610;2022-09-13T16:47:13;7.20;;;6.50;;
3004;SDS011;1512;51.486;6.610;2022-09-13T16:51:23;6.17;;;5.57;;
3004;SDS011;1512;51.486;6.610;2022-09-13T16:55:32;7.00;;;6.30;;
3004;SDS011;1512;51.486;6.610;2022-09-13T16:59:40;5.23;;;4.80;;
3004;SDS011;1512;51.486;6.610;2022-09-13T17:03:49;7.50;;;5.70;;
3004;SDS011;1512;51.486;6.610;2022-09-13T17:08:01;6.77;;;5.17;;
3004;SDS011;1512;51.486;6.610;2022-09-13T17:12:10;5.17;;;4.67;;
3004;SDS011;1512;51.486;6.610;2022-09-13T17:16:24;5.07;;;4.57;;
3004;SDS011;1512;51.486;6.610;2022-09-13T17:20:35;5.13;;;4.73;;
3004;SDS011;1512;51.486;6.610;2022-09-13T17:24:45;6.97;;;5.47;;
3004;SDS011;1512;51.486;6.610;2022-09-13T17:28:54;7.50;;;6.30;;
3004;SDS011;1512;51.486;6.610;2022-09-13T17:33:03;7.37;;;5.80;;
3004;SDS011;1512;51.486;6.610;2022-09-13T17:37:11;6.23;;;5.63;;
3004;SDS011;1512;51.486;6.610;2022-09-13T17:41:20;8.00;;;4.83;;
3004;SDS011;1512;51.486;6.610;2022-09-13T17:54:27;5.90;;;4.60;;
3004;SDS011;1512;51.486;6.610;2022-09-13T17:58:35;5.77;;;4.60;;
3004;SDS011;1512;51.486;6.610;2022-09-13T18:02:44;4.58;;;4.15;;
3004;SDS011;1512;51.486;6.610;2022-09-13T18:06:53;4.07;;;3.67;;
3004;SDS011;1512;51.486;6.610;2022-09-13T18:11:02;4.33;;;3.93;;
3004;SDS011;1512;51.486;6.610;2022-09-13T18:19:42;4.20;;;3.80;;
3004;SDS011;1512;51.486;6.610;2022-09-13T18:23:54;4.10;;;3.70;;
3004;SDS011;1512;51.486;6.610;2022-09-13T18:28:10;4.83;;;3.70;;
3004;SDS011;1512;51.486;6.610;2022-09-13T18:32:18;4.23;;;3.80;;
3004;SDS011;1512;51.486;6.610;2022-09-13T18:36:27;3.80;;;3.20;;
3004;SDS011;1512;51.486;6.610;2022-09-13T18:40:39;3.70;;;3.37;;
3004;SDS011;1512;51.486;6.610;2022-09-13T18:44:48;3.93;;;3.23;;
3004;SDS011;1512;51.486;6.610;2022-09-13T18:48:57;3.70;;;3.40;;
3004;SDS011;1512;51.486;6.610;2022-09-13T18:53:06;5.20;;;3.87;;
3004;SDS011;1512;51.486;6.610;2022-09-13T18:57:15;5.33;;;3.10;;
3004;SDS011;1512;51.486;6.610;2022-09-13T19:01:25;5.17;;;3.40;;
3004;SDS011;1512;51.486;6.610;2022-09-13T19:05:36;3.13;;;2.83;;
3004;SDS011;1512;51.486;6.610;2022-09-13T19:09:46;2.60;;;2.40;;
3004;SDS011;1512;51.486;6.610;2022-09-13T19:13:56;4.50;;;2.83;;
3004;SDS011;1512;51.486;6.610;2022-09-13T19:18:05;3.17;;;2.90;;
3004;SDS011;1512;51.486;6.610;2022-09-13T19:22:13;2.87;;;2.50;;
3004;SDS011;1512;51.486;6.610;2022-09-13T19:30:43;2.90;;;2.70;;
3004;SDS011;1512;51.486;6.610;2022-09-13T19:34:54;4.37;;;2.60;;
3004;SDS011;1512;51.486;6.610;2022-09-13T19:39:03;3.03;;;2.40;;
3004;SDS011;1512;51.486;6.610;2022-09-13T19:43:12;2.47;;;2.27;;
3004;SDS011;1512;51.486;6.610;2022-09-13T19:47:21;2.50;;;2.30;;
3004;SDS011;1512;51.486;6.610;2022-09-13T19:51:33;3.70;;;2.27;;
3004;SDS011;1512;51.486;6.610;2022-09-13T19:55:45;2.60;;;2.40;;
3004;SDS011;1512;51.486;6.610;2022-09-13T19:59:54;3.30;;;2.27;;
3004;SDS011;1512;51.486;6.610;2022-09-13T20:04:04;3.37;;;2.53;;
3004;SDS011;1512;51.486;6.610;2022-09-13T20:08:14;2.47;;;2.27;;
3004;SDS011;1512;51.486;6.610;2022-09-13T20:12:23;3.43;;;2.20;;
3004;SDS011;1512;51.486;6.610;2022-09-13T20:16:33;2.40;;;2.20;;
3004;SDS011;1512;51.486;6.610;2022-09-13T20:20:43;2.70;;;2.33;;
3004;SDS011;1512;51.486;6.610;2022-09-13T20:24:54;4.00;;;2.60;;
3004;SDS011;1512;51.486;6.610;2022-09-13T20:29:05;2.50;;;2.30;;
3004;SDS011;1512;51.486;6.610;2022-09-13T20:33:14;2.50;;;2.30;;
3004;SDS011;1512;51.486;6.610;2022-09-13T20:37:23;2.50;;;2.30;;
3004;SDS011;1512;51.486;6.610;2022-09-13T20:41:33;2.73;;;2.20;;
3004;SDS011;1512;51.486;6.610;2022-09-13T20:45:41;8.23;;;3.07;;
3004;SDS011;1512;51.486;6.610;2022-09-13T20:49:50;2.53;;;2.33;;
3004;SDS011;1512;51.486;6.610;2022-09-13T20:53:59;2.57;;;2.20;;
3004;SDS011;1512;51.486;6.610;2022-09-13T20:58:08;2.30;;;2.10;;
3004;SDS011;1512;51.486;6.610;2022-09-13T21:02:18;2.97;;;2.50;;
3004;SDS011;1512;51.486;6.610;2022-09-13T21:06:28;2.13;;;1.97;;
3004;SDS011;1512;51.486;6.610;2022-09-13T21:10:37;2.53;;;2.33;;
3004;SDS011;1512;51.486;6.610;2022-09-13T21:14:46;3.03;;;2.70;;
3004;SDS011;1512;51.486;6.610;2022-09-13T21:18:55;2.17;;;1.90;;
3004;SDS011;1512;51.486;6.610;2022-09-13T21:23:04;5.00;;;2.67;;
3004;SDS011;1512;51.486;6.610;2022-09-13T21:27:12;2.80;;;2.40;;
3004;SDS011;1512;51.486;6.610;2022-09-13T21:31:22;2.77;;;2.57;;
3004;SDS011;1512;51.486;6.610;2022-09-13T21:35:36;3.60;;;2.53;;
3004;SDS011;1512;51.486;6.610;2022-09-13T21:39:48;4.33;;;2.10;;
3004;SDS011;1512;51.486;6.610;2022-09-13T21:43:57;10.43;;;2.90;;
3004;SDS011;1512;51.486;6.610;2022-09-13T21:48:05;2.30;;;2.10;;
3004;SDS011;1512;51.486;6.610;2022-09-13T21:52:14;3.60;;;2.30;;
3004;SDS011;1512;51.486;6.610;2022-09-13T21:56:23;3.90;;;2.00;;
3004;SDS011;1512;51.486;6.610;2022-09-13T22:00:35;3.93;;;2.00;;
3004;SDS011;1512;51.486;6.610;2022-09-13T22:04:45;3.80;;;2.70;;
3004;SDS011;1512;51.486;6.610;2022-09-13T22:08:55;3.70;;;2.97;;
3004;SDS011;1512;51.486;6.610;2022-09-13T22:13:05;3.13;;;2.40;;
3004;SDS011;1512;51.486;6.610;2022-09-13T22:21:43;3.50;;;2.30;;
3004;SDS011;1512;51.486;6.610;2022-09-13T22:25:53;3.45;;;1.95;;
3004;SDS011;1512;51.486;6.610;2022-09-13T22:30:03;3.53;;;1.87;;
3004;SDS011;1512;51.486;6.610;2022-09-13T22:34:13;3.93;;;2.97;;
3004;SDS011;1512;51.486;6.610;2022-09-13T22:38:23;3.63;;;2.27;;
3004;SDS011;1512;51.486;6.610;2022-09-13T22:42:32;4.77;;;3.30;;
3004;SDS011;1512;51.486;6.610;2022-09-13T22:51:09;4.53;;;2.43;;
3004;SDS011;1512;51.486;6.610;2022-09-13T22:55:18;3.83;;;2.73;;
3004;SDS011;1512;51.486;6.610;2022-09-13T22:59:27;3.10;;;2.80;;
3004;SDS011;1512;51.486;6.610;2022-09-13T23:03:36;7.63;;;2.63;;
3004;SDS011;1512;51.486;6.610;2022-09-13T23:07:46;3.97;;;2.70;;
3004;SDS011;1512;51.486;6.610;2022-09-13T23:11:55;3.70;;;2.23;;
3004;SDS011;1512;51.486;6.610;2022-09-13T23:16:04;3.73;;;2.40;;
3004;SDS011;1512;51.486;6.610;2022-09-13T23:20:14;3.53;;;2.33;;
3004;SDS011;1512;51.486;6.610;2022-09-13T23:24:22;3.47;;;2.60;;
3004;SDS011;1512;51.486;6.610;2022-09-13T23:33:03;5.67;;;3.00;;
3004;SDS011;1512;51.486;6.610;2022-09-13T23:37:13;3.80;;;2.60;;
3004;SDS011;1512;51.486;6.610;2022-09-13T23:41:22;3.00;;;2.23;;
3004;SDS011;1512;51.486;6.610;2022-09-13T23:45:31;4.93;;;2.60;;
3004;SDS011;1512;51.486;6.610;2022-09-13T23:49:40;2.40;;;2.20;;
3004;SDS011;1512;51.486;6.610;2022-09-13T23:53:50;7.33;;;3.00;;
3004;SDS011;1512;51.486;6.610;2022-09-13T23:58:01;3.33;;;3.03;;
